sensor_id;sensor_type;location;lat;lon;timestamp;temperature;humidity
1704;DHT22;849;48.780;9.216;2023-07-13T00:02:26;23.80;71.90
1704;DHT22;849;48.780;9.216;2023-07-13T00:04:57;24.10;72.50
1704;DHT22;849;48.780;9.216;2023-07-13T00:07:40;23.90;72.30
1704;DHT22;849;48.780;9.216;2023-07-13T00:10:14;23.90;72.30
1704;DHT22;849;48.780;9.216;2023-07-13T00:12:46;24.00;72.40
1704;DHT22;849;48.780;9.216;2023-07-13T00:15:26;24.20;71.70
1704;DHT22;849;48.780;9.216;2023-07-13T00:18:05;24.20;70.60
1704;DHT22;849;48.780;9.216;2023-07-13T00:20:43;24.20;71.10
1704;DHT22;849;48.780;9.216;2023-07-13T00:23:14;24.10;70.70
1704;DHT22;849;48.780;9.216;2023-07-13T00:25:51;24.10;71.10
1704;DHT22;849;48.780;9.216;2023-07-13T00:28:18;23.90;71.40
1704;DHT22;849;48.780;9.216;2023-07-13T00:30:48;23.90;71.50
1704;DHT22;849;48.780;9.216;2023-07-13T00:33:22;23.90;70.60
1704;DHT22;849;48.780;9.216;2023-07-13T00:36:04;23.90;71.50
1704;DHT22;849;48.780;9.216;2023-07-13T00:38:44;23.80;70.60
1704;DHT22;849;48.780;9.216;2023-07-13T00:41:14;23.80;70.90
1704;DHT22;849;48.780;9.216;2023-07-13T00:43:48;23.90;71.10
1704;DHT22;849;48.780;9.216;2023-07-13T00:46:33;23.90;70.90
1704;DHT22;849;48.780;9.216;2023-07-13T00:49:10;23.80;71.30
1704;DHT22;849;48.780;9.216;2023-07-13T00:52:01;23.80;71.00
1704;DHT22;849;48.780;9.216;2023-07-13T00:54:49;23.90;70.70
1704;DHT22;849;48.780;9.216;2023-07-13T00:57:22;23.80;69.80
1704;DHT22;849;48.780;9.216;2023-07-13T01:00:03;23.80;70.70
1704;DHT22;849;48.780;9.216;2023-07-13T01:02:42;23.80;70.40
1704;DHT22;849;48.780;9.216;2023-07-13T01:05:20;23.80;71.30
1704;DHT22;849;48.780;9.216;2023-07-13T01:07:59;23.90;71.40
1704;DHT22;849;48.780;9.216;2023-07-13T01:10:36;24.00;70.50
1704;DHT22;849;48.780;9.216;2023-07-13T01:13:16;23.90;70.70
1704;DHT22;849;48.780;9.216;2023-07-13T01:16:03;24.00;70.40
1704;DHT22;849;48.780;9.216;2023-07-13T01:18:38;24.00;69.90
1704;DHT22;849;48.780;9.216;2023-07-13T01:21:17;23.90;70.60
1704;DHT22;849;48.780;9.216;2023-07-13T01:23:52;23.80;69.60
1704;DHT22;849;48.780;9.216;2023-07-13T01:26:25;23.80;69.30
1704;DHT22;849;48.780;9.216;2023-07-13T01:29:00;23.70;68.80
1704;DHT22;849;48.780;9.216;2023-07-13T01:31:32;23.80;69.00
1704;DHT22;849;48.780;9.216;2023-07-13T01:34:03;23.60;69.30
1704;DHT22;849;48.780;9.216;2023-07-13T01:36:38;23.30;69.30
1704;DHT22;849;48.780;9.216;2023-07-13T01:39:17;23.30;70.00
1704;DHT22;849;48.780;9.216;2023-07-13T01:41:48;23.20;70.90
1704;DHT22;849;48.780;9.216;2023-07-13T01:44:16;23.40;70.60
1704;DHT22;849;48.780;9.216;2023-07-13T01:46:55;23.20;69.80
1704;DHT22;849;48.780;9.216;2023-07-13T01:49:36;22.90;70.10
1704;DHT22;849;48.780;9.216;2023-07-13T01:52:13;22.60;71.90
1704;DHT22;849;48.780;9.216;2023-07-13T01:54:47;22.70;72.40
1704;DHT22;849;48.780;9.216;2023-07-13T01:57:18;22.80;71.10
1704;DHT22;849;48.780;9.216;2023-07-13T01:59:51;23.00;71.30
1704;DHT22;849;48.780;9.216;2023-07-13T02:02:27;23.20;72.90
1704;DHT22;849;48.780;9.216;2023-07-13T02:05:13;23.20;73.70
1704;DHT22;849;48.780;9.216;2023-07-13T02:07:55;23.20;75.70
1704;DHT22;849;48.780;9.216;2023-07-13T02:10:38;23.20;73.60
1704;DHT22;849;48.780;9.216;2023-07-13T02:13:11;22.90;73.50
1704;DHT22;849;48.780;9.216;2023-07-13T02:15:45;23.10;75.10
1704;DHT22;849;48.780;9.216;2023-07-13T02:18:21;23.20;73.20
1704;DHT22;849;48.780;9.216;2023-07-13T02:20:55;23.20;75.70
1704;DHT22;849;48.780;9.216;2023-07-13T02:23:22;23.20;76.40
1704;DHT22;849;48.780;9.216;2023-07-13T02:25:59;23.20;75.50
1704;DHT22;849;48.780;9.216;2023-07-13T02:28:43;23.20;75.40
1704;DHT22;849;48.780;9.216;2023-07-13T02:31:15;23.00;75.10
1704;DHT22;849;48.780;9.216;2023-07-13T02:33:47;22.70;75.60
1704;DHT22;849;48.780;9.216;2023-07-13T02:36:24;22.40;77.10
1704;DHT22;849;48.780;9.216;2023-07-13T02:39:02;22.40;77.70
1704;DHT22;849;48.780;9.216;2023-07-13T02:41:35;22.20;78.40
1704;DHT22;849;48.780;9.216;2023-07-13T02:44:13;22.20;78.40
1704;DHT22;849;48.780;9.216;2023-07-13T02:46:47;22.30;79.40
1704;DHT22;849;48.780;9.216;2023-07-13T02:49:24;22.40;79.80
1704;DHT22;849;48.780;9.216;2023-07-13T02:51:56;22.40;78.60
1704;DHT22;849;48.780;9.216;2023-07-13T02:54:31;22.20;79.00
1704;DHT22;849;48.780;9.216;2023-07-13T02:57:02;22.20;79.60
1704;DHT22;849;48.780;9.216;2023-07-13T02:59:36;22.30;79.10
1704;DHT22;849;48.780;9.216;2023-07-13T03:02:12;22.40;78.40
1704;DHT22;849;48.780;9.216;2023-07-13T03:04:49;22.40;77.90
1704;DHT22;849;48.780;9.216;2023-07-13T03:07:23;22.30;78.70
1704;DHT22;849;48.780;9.216;2023-07-13T03:09:56;22.30;79.60
1704;DHT22;849;48.780;9.216;2023-07-13T03:12:28;22.30;80.10
1704;DHT22;849;48.780;9.216;2023-07-13T03:14:59;22.30;80.10
1704;DHT22;849;48.780;9.216;2023-07-13T03:17:30;22.10;79.70
1704;DHT22;849;48.780;9.216;2023-07-13T03:20:04;22.00;79.90
1704;DHT22;849;48.780;9.216;2023-07-13T03:22:36;22.10;80.40
1704;DHT22;849;48.780;9.216;2023-07-13T03:25:11;22.20;80.60
1704;DHT22;849;48.780;9.216;2023-07-13T03:27:39;22.00;79.00
1704;DHT22;849;48.780;9.216;2023-07-13T03:30:10;22.00;79.90
1704;DHT22;849;48.780;9.216;2023-07-13T03:32:47;22.00;80.60
1704;DHT22;849;48.780;9.216;2023-07-13T03:35:21;22.00;82.10
1704;DHT22;849;48.780;9.216;2023-07-13T03:37:52;22.00;81.60
1704;DHT22;849;48.780;9.216;2023-07-13T03:40:23;21.90;82.50
1704;DHT22;849;48.780;9.216;2023-07-13T03:43:06;21.90;82.20
1704;DHT22;849;48.780;9.216;2023-07-13T03:45:47;22.00;81.70
1704;DHT22;849;48.780;9.216;2023-07-13T03:48:18;22.00;82.30
1704;DHT22;849;48.780;9.216;2023-07-13T03:50:54;22.10;81.30
1704;DHT22;849;48.780;9.216;2023-07-13T03:53:33;22.20;78.80
1704;DHT22;849;48.780;9.216;2023-07-13T03:56:07;22.20;80.60
1704;DHT22;849;48.780;9.216;2023-07-13T03:58:45;22.30;81.00
1704;DHT22;849;48.780;9.216;2023-07-13T04:01:24;22.20;81.60
1704;DHT22;849;48.780;9.216;2023-07-13T04:04:05;22.30;82.40
1704;DHT22;849;48.780;9.216;2023-07-13T04:06:42;22.40;83.10
1704;DHT22;849;48.780;9.216;2023-07-13T04:09:26;22.50;83.50
1704;DHT22;849;48.780;9.216;2023-07-13T04:12:04;22.60;83.60
1704;DHT22;849;48.780;9.216;2023-07-13T04:14:40;22.70;81.90
1704;DHT22;849;48.780;9.216;2023-07-13T04:17:23;22.80;82.10
1704;DHT22;849;48.780;9.216;2023-07-13T04:19:54;22.80;82.10
1704;DHT22;849;48.780;9.216;2023-07-13T04:22:30;22.70;81.90
1704;DHT22;849;48.780;9.216;2023-07-13T04:25:04;22.70;82.20
1704;DHT22;849;48.780;9.216;2023-07-13T04:27:41;22.50;82.50
1704;DHT22;849;48.780;9.216;2023-07-13T04:30:15;22.60;81.70
1704;DHT22;849;48.780;9.216;2023-07-13T04:32:51;22.60;81.80
1704;DHT22;849;48.780;9.216;2023-07-13T04:35:22;22.60;80.40
1704;DHT22;849;48.780;9.216;2023-07-13T04:38:04;22.60;79.90
1704;DHT22;849;48.780;9.216;2023-07-13T04:40:40;22.70;79.30
1704;DHT22;849;48.780;9.216;2023-07-13T04:43:13;22.70;76.60
1704;DHT22;849;48.780;9.216;2023-07-13T04:45:57;22.70;75.70
1704;DHT22;849;48.780;9.216;2023-07-13T04:48:49;22.40;73.40
1704;DHT22;849;48.780;9.216;2023-07-13T04:51:33;22.50;76.30
1704;DHT22;849;48.780;9.216;2023-07-13T04:54:14;22.50;76.50
1704;DHT22;849;48.780;9.216;2023-07-13T04:56:44;22.60;75.70
1704;DHT22;849;48.780;9.216;2023-07-13T04:59:18;22.60;77.10
1704;DHT22;849;48.780;9.216;2023-07-13T05:02:01;22.80;78.70
1704;DHT22;849;48.780;9.216;2023-07-13T05:04:34;22.60;81.60
1704;DHT22;849;48.780;9.216;2023-07-13T05:07:19;22.60;81.10
1704;DHT22;849;48.780;9.216;2023-07-13T05:09:50;22.60;81.50
1704;DHT22;849;48.780;9.216;2023-07-13T05:12:27;22.60;82.10
1704;DHT22;849;48.780;9.216;2023-07-13T05:14:58;22.60;82.60
1704;DHT22;849;48.780;9.216;2023-07-13T05:17:34;22.70;80.70
1704;DHT22;849;48.780;9.216;2023-07-13T05:20:09;22.70;80.90
1704;DHT22;849;48.780;9.216;2023-07-13T05:22:47;22.50;75.60
1704;DHT22;849;48.780;9.216;2023-07-13T05:25:21;22.60;78.60
1704;DHT22;849;48.780;9.216;2023-07-13T05:28:03;22.50;74.80
1704;DHT22;849;48.780;9.216;2023-07-13T05:30:32;22.30;74.60
1704;DHT22;849;48.780;9.216;2023-07-13T05:33:04;22.50;73.20
1704;DHT22;849;48.780;9.216;2023-07-13T05:35:35;22.50;74.30
1704;DHT22;849;48.780;9.216;2023-07-13T05:38:12;22.40;71.70
1704;DHT22;849;48.780;9.216;2023-07-13T05:40:45;22.20;73.20
1704;DHT22;849;48.780;9.216;2023-07-13T05:43:19;22.10;72.50
1704;DHT22;849;48.780;9.216;2023-07-13T05:46:07;22.40;75.00
1704;DHT22;849;48.780;9.216;2023-07-13T05:48:42;22.70;72.60
1704;DHT22;849;48.780;9.216;2023-07-13T05:51:16;22.70;71.90
1704;DHT22;849;48.780;9.216;2023-07-13T05:53:55;22.80;70.70
1704;DHT22;849;48.780;9.216;2023-07-13T05:56:27;23.00;72.70
1704;DHT22;849;48.780;9.216;2023-07-13T05:59:03;23.10;72.70
1704;DHT22;849;48.780;9.216;2023-07-13T06:01:40;23.20;71.90
1704;DHT22;849;48.780;9.216;2023-07-13T06:04:14;23.20;72.90
1704;DHT22;849;48.780;9.216;2023-07-13T06:06:48;23.00;69.40
1704;DHT22;849;48.780;9.216;2023-07-13T06:09:21;22.70;70.40
1704;DHT22;849;48.780;9.216;2023-07-13T06:11:57;22.80;71.50
1704;DHT22;849;48.780;9.216;2023-07-13T06:14:32;23.00;71.60
1704;DHT22;849;48.780;9.216;2023-07-13T06:17:03;22.80;69.70
1704;DHT22;849;48.780;9.216;2023-07-13T06:19:41;22.40;71.70
1704;DHT22;849;48.780;9.216;2023-07-13T06:22:23;22.50;70.80
1704;DHT22;849;48.780;9.216;2023-07-13T06:24:59;22.70;71.40
1704;DHT22;849;48.780;9.216;2023-07-13T06:27:36;22.60;69.10
1704;DHT22;849;48.780;9.216;2023-07-13T06:30:13;22.50;72.10
1704;DHT22;849;48.780;9.216;2023-07-13T06:32:47;22.60;73.00
1704;DHT22;849;48.780;9.216;2023-07-13T06:35:32;22.60;71.50
1704;DHT22;849;48.780;9.216;2023-07-13T06:38:12;22.70;70.70
1704;DHT22;849;48.780;9.216;2023-07-13T06:40:45;22.70;69.20
1704;DHT22;849;48.780;9.216;2023-07-13T06:43:22;22.40;69.90
1704;DHT22;849;48.780;9.216;2023-07-13T06:45:58;22.40;69.10
1704;DHT22;849;48.780;9.216;2023-07-13T06:48:32;21.90;69.30
1704;DHT22;849;48.780;9.216;2023-07-13T06:51:06;22.20;71.30
1704;DHT22;849;48.780;9.216;2023-07-13T06:54:04;22.50;69.90
1704;DHT22;849;48.780;9.216;2023-07-13T06:56:40;22.40;67.50
1704;DHT22;849;48.780;9.216;2023-07-13T06:59:10;22.40;65.70
1704;DHT22;849;48.780;9.216;2023-07-13T07:01:41;22.50;66.00
1704;DHT22;849;48.780;9.216;2023-07-13T07:04:17;22.70;66.40
1704;DHT22;849;48.780;9.216;2023-07-13T07:06:59;22.70;67.20
1704;DHT22;849;48.780;9.216;2023-07-13T07:09:42;22.60;68.10
1704;DHT22;849;48.780;9.216;2023-07-13T07:12:15;22.40;66.70
1704;DHT22;849;48.780;9.216;2023-07-13T07:14:47;22.60;66.60
1704;DHT22;849;48.780;9.216;2023-07-13T07:17:21;22.80;67.50
1704;DHT22;849;48.780;9.216;2023-07-13T07:19:59;22.90;66.20
1704;DHT22;849;48.780;9.216;2023-07-13T07:22:33;22.80;66.20
1704;DHT22;849;48.780;9.216;2023-07-13T07:25:13;22.70;66.70
1704;DHT22;849;48.780;9.216;2023-07-13T07:27:49;22.70;66.10
1704;DHT22;849;48.780;9.216;2023-07-13T07:30:29;22.80;65.40
1704;DHT22;849;48.780;9.216;2023-07-13T07:33:09;22.70;63.60
1704;DHT22;849;48.780;9.216;2023-07-13T07:35:46;22.80;62.80
1704;DHT22;849;48.780;9.216;2023-07-13T07:38:20;22.60;62.60
1704;DHT22;849;48.780;9.216;2023-07-13T07:40:53;22.40;64.80
1704;DHT22;849;48.780;9.216;2023-07-13T07:43:32;22.70;64.50
1704;DHT22;849;48.780;9.216;2023-07-13T07:46:12;22.80;64.50
1704;DHT22;849;48.780;9.216;2023-07-13T07:48:51;22.80;64.90
1704;DHT22;849;48.780;9.216;2023-07-13T07:51:25;22.70;64.50
1704;DHT22;849;48.780;9.216;2023-07-13T07:54:12;22.90;64.00
1704;DHT22;849;48.780;9.216;2023-07-13T07:56:44;22.70;63.70
1704;DHT22;849;48.780;9.216;2023-07-13T07:59:22;22.60;63.50
1704;DHT22;849;48.780;9.216;2023-07-13T08:02:00;22.60;63.30
1704;DHT22;849;48.780;9.216;2023-07-13T08:04:42;22.80;64.60
1704;DHT22;849;48.780;9.216;2023-07-13T08:07:16;22.90;62.20
1704;DHT22;849;48.780;9.216;2023-07-13T08:09:57;22.90;61.00
1704;DHT22;849;48.780;9.216;2023-07-13T08:12:38;22.90;60.50
1704;DHT22;849;48.780;9.216;2023-07-13T08:15:12;22.70;60.60
1704;DHT22;849;48.780;9.216;2023-07-13T08:17:43;22.50;60.30
1704;DHT22;849;48.780;9.216;2023-07-13T08:20:23;22.60;64.20
1704;DHT22;849;48.780;9.216;2023-07-13T08:23:04;23.00;61.70
1704;DHT22;849;48.780;9.216;2023-07-13T08:25:38;23.20;60.30
1704;DHT22;849;48.780;9.216;2023-07-13T08:28:16;22.90;60.10
1704;DHT22;849;48.780;9.216;2023-07-13T08:30:52;22.90;59.50
1704;DHT22;849;48.780;9.216;2023-07-13T08:33:34;22.70;59.60
1704;DHT22;849;48.780;9.216;2023-07-13T08:36:11;22.60;60.00
1704;DHT22;849;48.780;9.216;2023-07-13T08:38:55;22.60;60.90
1704;DHT22;849;48.780;9.216;2023-07-13T08:41:32;22.80;60.60
1704;DHT22;849;48.780;9.216;2023-07-13T08:44:30;22.90;60.30
1704;DHT22;849;48.780;9.216;2023-07-13T08:47:08;23.00;60.60
1704;DHT22;849;48.780;9.216;2023-07-13T08:49:48;23.10;60.80
1704;DHT22;849;48.780;9.216;2023-07-13T08:52:44;23.10;61.40
1704;DHT22;849;48.780;9.216;2023-07-13T08:55:23;23.40;61.80
1704;DHT22;849;48.780;9.216;2023-07-13T08:58:10;23.40;61.20
1704;DHT22;849;48.780;9.216;2023-07-13T09:01:18;23.40;62.30
1704;DHT22;849;48.780;9.216;2023-07-13T09:04:08;23.50;61.80
1704;DHT22;849;48.780;9.216;2023-07-13T09:10:24;23.70;60.90
1704;DHT22;849;48.780;9.216;2023-07-13T09:13:19;23.30;61.00
1704;DHT22;849;48.780;9.216;2023-07-13T09:15:56;23.10;61.80
1704;DHT22;849;48.780;9.216;2023-07-13T09:18:52;23.30;62.30
1704;DHT22;849;48.780;9.216;2023-07-13T09:21:38;23.50;61.70
1704;DHT22;849;48.780;9.216;2023-07-13T09:27:36;24.10;60.90
1704;DHT22;849;48.780;9.216;2023-07-13T09:30:23;24.30;59.80
1704;DHT22;849;48.780;9.216;2023-07-13T09:33:03;24.40;60.40
1704;DHT22;849;48.780;9.216;2023-07-13T09:35:40;24.20;59.20
1704;DHT22;849;48.780;9.216;2023-07-13T09:38:16;24.20;59.10
1704;DHT22;849;48.780;9.216;2023-07-13T09:43:42;23.60;60.10
1704;DHT22;849;48.780;9.216;2023-07-13T09:46:31;23.70;60.90
1704;DHT22;849;48.780;9.216;2023-07-13T09:49:10;23.50;60.90
1704;DHT22;849;48.780;9.216;2023-07-13T09:51:44;23.70;60.80
1704;DHT22;849;48.780;9.216;2023-07-13T09:54:20;23.70;59.70
1704;DHT22;849;48.780;9.216;2023-07-13T09:57:01;24.00;59.50
1704;DHT22;849;48.780;9.216;2023-07-13T09:59:49;23.70;58.10
1704;DHT22;849;48.780;9.216;2023-07-13T10:02:36;23.70;58.80
1704;DHT22;849;48.780;9.216;2023-07-13T10:05:14;23.90;59.00
1704;DHT22;849;48.780;9.216;2023-07-13T10:07:50;24.10;58.50
1704;DHT22;849;48.780;9.216;2023-07-13T10:10:30;24.30;58.30
1704;DHT22;849;48.780;9.216;2023-07-13T10:13:01;24.50;58.40
1704;DHT22;849;48.780;9.216;2023-07-13T10:15:34;24.70;58.50
1704;DHT22;849;48.780;9.216;2023-07-13T10:18:08;24.60;58.40
1704;DHT22;849;48.780;9.216;2023-07-13T10:20:42;24.00;58.40
1704;DHT22;849;48.780;9.216;2023-07-13T10:23:22;23.80;59.00
1704;DHT22;849;48.780;9.216;2023-07-13T10:26:01;23.90;59.50
1704;DHT22;849;48.780;9.216;2023-07-13T10:28:37;24.20;61.40
1704;DHT22;849;48.780;9.216;2023-07-13T10:31:14;24.50;61.00
1704;DHT22;849;48.780;9.216;2023-07-13T10:33:51;24.80;59.50
1704;DHT22;849;48.780;9.216;2023-07-13T10:36:46;25.00;58.50
1704;DHT22;849;48.780;9.216;2023-07-13T10:39:27;24.80;58.40
1704;DHT22;849;48.780;9.216;2023-07-13T10:42:11;25.30;59.30
1704;DHT22;849;48.780;9.216;2023-07-13T10:44:49;24.80;58.30
1704;DHT22;849;48.780;9.216;2023-07-13T10:47:34;24.90;58.20
1704;DHT22;849;48.780;9.216;2023-07-13T10:50:21;25.40;60.50
1704;DHT22;849;48.780;9.216;2023-07-13T10:53:17;25.30;57.50
1704;DHT22;849;48.780;9.216;2023-07-13T10:55:56;25.30;57.00
1704;DHT22;849;48.780;9.216;2023-07-13T10:58:38;25.50;56.80
1704;DHT22;849;48.780;9.216;2023-07-13T11:01:17;25.60;57.30
1704;DHT22;849;48.780;9.216;2023-07-13T11:03:55;25.50;56.60
1704;DHT22;849;48.780;9.216;2023-07-13T11:06:43;25.30;56.10
1704;DHT22;849;48.780;9.216;2023-07-13T11:09:38;25.00;58.00
1704;DHT22;849;48.780;9.216;2023-07-13T11:17:40;24.80;57.10
1704;DHT22;849;48.780;9.216;2023-07-13T11:20:21;24.80;57.60
1704;DHT22;849;48.780;9.216;2023-07-13T11:25:47;25.00;57.00
1704;DHT22;849;48.780;9.216;2023-07-13T11:28:24;24.90;57.60
1704;DHT22;849;48.780;9.216;2023-07-13T11:36:23;25.30;57.50
1704;DHT22;849;48.780;9.216;2023-07-13T11:39:20;25.30;57.00
1704;DHT22;849;48.780;9.216;2023-07-13T11:41:52;25.00;57.10
1704;DHT22;849;48.780;9.216;2023-07-13T11:44:28;24.70;57.10
1704;DHT22;849;48.780;9.216;2023-07-13T11:47:18;25.00;58.00
1704;DHT22;849;48.780;9.216;2023-07-13T11:49:57;25.10;57.20
1704;DHT22;849;48.780;9.216;2023-07-13T11:52:36;25.60;58.60
1704;DHT22;849;48.780;9.216;2023-07-13T11:55:28;25.60;55.90
1704;DHT22;849;48.780;9.216;2023-07-13T11:58:01;25.70;56.30
1704;DHT22;849;48.780;9.216;2023-07-13T12:00:37;25.60;56.00
1704;DHT22;849;48.780;9.216;2023-07-13T12:03:29;25.70;56.00
1704;DHT22;849;48.780;9.216;2023-07-13T12:06:05;25.60;56.10
1704;DHT22;849;48.780;9.216;2023-07-13T12:08:39;25.80;55.60
1704;DHT22;849;48.780;9.216;2023-07-13T12:11:19;25.30;56.30
1704;DHT22;849;48.780;9.216;2023-07-13T12:13:52;25.40;55.70
1704;DHT22;849;48.780;9.216;2023-07-13T12:16:29;25.50;55.20
1704;DHT22;849;48.780;9.216;2023-07-13T12:19:02;25.50;55.70
1704;DHT22;849;48.780;9.216;2023-07-13T12:21:43;25.60;55.50
1704;DHT22;849;48.780;9.216;2023-07-13T12:24:21;25.60;55.30
1704;DHT22;849;48.780;9.216;2023-07-13T12:27:02;25.50;55.60
1704;DHT22;849;48.780;9.216;2023-07-13T12:29:33;25.30;55.80
1704;DHT22;849;48.780;9.216;2023-07-13T12:32:14;25.70;55.50
1704;DHT22;849;48.780;9.216;2023-07-13T12:34:56;26.10;56.10
1704;DHT22;849;48.780;9.216;2023-07-13T12:37:34;25.90;55.00
1704;DHT22;849;48.780;9.216;2023-07-13T12:40:12;25.80;55.30
1704;DHT22;849;48.780;9.216;2023-07-13T12:42:47;25.80;55.30
1704;DHT22;849;48.780;9.216;2023-07-13T12:45:23;25.70;54.70
1704;DHT22;849;48.780;9.216;2023-07-13T12:48:10;25.90;53.70
1704;DHT22;849;48.780;9.216;2023-07-13T12:50:50;25.70;54.60
1704;DHT22;849;48.780;9.216;2023-07-13T12:53:30;25.60;54.30
1704;DHT22;849;48.780;9.216;2023-07-13T12:56:05;25.90;54.50
1704;DHT22;849;48.780;9.216;2023-07-13T12:58:40;26.00;53.80
1704;DHT22;849;48.780;9.216;2023-07-13T13:01:19;25.80;53.60
1704;DHT22;849;48.780;9.216;2023-07-13T13:03:49;25.90;55.10
1704;DHT22;849;48.780;9.216;2023-07-13T13:06:35;26.10;53.40
1704;DHT22;849;48.780;9.216;2023-07-13T13:09:15;26.00;53.40
1704;DHT22;849;48.780;9.216;2023-07-13T13:11:43;25.70;54.30
1704;DHT22;849;48.780;9.216;2023-07-13T13:14:16;26.00;54.30
1704;DHT22;849;48.780;9.216;2023-07-13T13:16:49;25.90;53.40
1704;DHT22;849;48.780;9.216;2023-07-13T13:19:33;25.90;54.30
1704;DHT22;849;48.780;9.216;2023-07-13T13:22:09;26.00;53.30
1704;DHT22;849;48.780;9.216;2023-07-13T13:24:47;26.40;54.70
1704;DHT22;849;48.780;9.216;2023-07-13T13:27:28;26.60;52.80
1704;DHT22;849;48.780;9.216;2023-07-13T13:30:00;26.70;51.60
1704;DHT22;849;48.780;9.216;2023-07-13T13:32:31;26.60;51.80
1704;DHT22;849;48.780;9.216;2023-07-13T13:35:05;26.60;52.80
1704;DHT22;849;48.780;9.216;2023-07-13T13:37:44;26.60;52.10
1704;DHT22;849;48.780;9.216;2023-07-13T13:40:24;26.80;52.60
1704;DHT22;849;48.780;9.216;2023-07-13T13:43:04;26.80;51.50
1704;DHT22;849;48.780;9.216;2023-07-13T13:45:43;26.50;51.40
1704;DHT22;849;48.780;9.216;2023-07-13T13:48:24;26.20;51.30
1704;DHT22;849;48.780;9.216;2023-07-13T13:51:22;26.30;51.20
1704;DHT22;849;48.780;9.216;2023-07-13T13:53:58;26.50;51.80
1704;DHT22;849;48.780;9.216;2023-07-13T13:56:28;26.60;51.60
1704;DHT22;849;48.780;9.216;2023-07-13T13:59:05;26.50;52.40
1704;DHT22;849;48.780;9.216;2023-07-13T14:01:45;26.90;52.00
1704;DHT22;849;48.780;9.216;2023-07-13T14:04:22;26.90;50.90
1704;DHT22;849;48.780;9.216;2023-07-13T14:06:56;26.90;50.80
1704;DHT22;849;48.780;9.216;2023-07-13T14:09:32;26.90;51.10
1704;DHT22;849;48.780;9.216;2023-07-13T14:12:15;27.00;50.70
1704;DHT22;849;48.780;9.216;2023-07-13T14:14:49;27.00;50.60
1704;DHT22;849;48.780;9.216;2023-07-13T14:17:22;26.80;50.50
1704;DHT22;849;48.780;9.216;2023-07-13T14:20:00;27.00;50.50
1704;DHT22;849;48.780;9.216;2023-07-13T14:22:36;26.80;50.70
1704;DHT22;849;48.780;9.216;2023-07-13T14:25:11;26.60;51.20
1704;DHT22;849;48.780;9.216;2023-07-13T14:27:44;26.40;51.30
1704;DHT22;849;48.780;9.216;2023-07-13T14:30:28;26.60;52.60
1704;DHT22;849;48.780;9.216;2023-07-13T14:33:01;26.50;51.50
1704;DHT22;849;48.780;9.216;2023-07-13T14:35:42;26.60;51.90
1704;DHT22;849;48.780;9.216;2023-07-13T14:38:18;26.80;51.00
1704;DHT22;849;48.780;9.216;2023-07-13T14:40:49;26.50;50.70
1704;DHT22;849;48.780;9.216;2023-07-13T14:43:26;26.60;49.70
1704;DHT22;849;48.780;9.216;2023-07-13T14:46:07;26.70;50.10
1704;DHT22;849;48.780;9.216;2023-07-13T14:48:51;26.50;50.10
1704;DHT22;849;48.780;9.216;2023-07-13T14:51:34;27.00;51.50
1704;DHT22;849;48.780;9.216;2023-07-13T14:54:15;26.80;50.60
1704;DHT22;849;48.780;9.216;2023-07-13T14:56:51;26.70;50.90
1704;DHT22;849;48.780;9.216;2023-07-13T14:59:27;27.00;50.90
1704;DHT22;849;48.780;9.216;2023-07-13T15:01:58;27.00;50.30
1704;DHT22;849;48.780;9.216;2023-07-13T15:04:34;27.00;50.50
1704;DHT22;849;48.780;9.216;2023-07-13T15:07:07;27.00;51.40
1704;DHT22;849;48.780;9.216;2023-07-13T15:09:54;26.90;50.40
1704;DHT22;849;48.780;9.216;2023-07-13T15:12:29;27.10;50.50
1704;DHT22;849;48.780;9.216;2023-07-13T15:15:06;27.00;50.90
1704;DHT22;849;48.780;9.216;2023-07-13T15:17:46;27.00;50.90
1704;DHT22;849;48.780;9.216;2023-07-13T15:20:31;27.20;50.40
1704;DHT22;849;48.780;9.216;2023-07-13T15:23:12;27.10;51.90
1704;DHT22;849;48.780;9.216;2023-07-13T15:25:45;27.50;51.40
1704;DHT22;849;48.780;9.216;2023-07-13T15:28:29;27.40;50.70
1704;DHT22;849;48.780;9.216;2023-07-13T15:31:33;27.50;51.00
1704;DHT22;849;48.780;9.216;2023-07-13T15:34:20;27.70;50.10
1704;DHT22;849;48.780;9.216;2023-07-13T15:36:59;27.80;49.40
1704;DHT22;849;48.780;9.216;2023-07-13T15:39:34;28.30;48.90
1704;DHT22;849;48.780;9.216;2023-07-13T15:42:22;28.70;48.10
1704;DHT22;849;48.780;9.216;2023-07-13T15:44:59;29.30;47.60
1704;DHT22;849;48.780;9.216;2023-07-13T15:47:32;29.50;47.20
1704;DHT22;849;48.780;9.216;2023-07-13T15:50:11;29.60;47.30
1704;DHT22;849;48.780;9.216;2023-07-13T15:52:58;29.50;47.80
1704;DHT22;849;48.780;9.216;2023-07-13T15:55:37;29.70;46.50
1704;DHT22;849;48.780;9.216;2023-07-13T15:58:18;29.70;47.90
1704;DHT22;849;48.780;9.216;2023-07-13T16:00:55;30.00;45.60
1704;DHT22;849;48.780;9.216;2023-07-13T16:03:35;30.00;46.20
1704;DHT22;849;48.780;9.216;2023-07-13T16:06:26;30.20;45.30
1704;DHT22;849;48.780;9.216;2023-07-13T16:09:04;30.20;45.10
1704;DHT22;849;48.780;9.216;2023-07-13T16:11:45;30.40;45.30
1704;DHT22;849;48.780;9.216;2023-07-13T16:14:21;30.50;45.40
1704;DHT22;849;48.780;9.216;2023-07-13T16:16:52;30.40;44.60
1704;DHT22;849;48.780;9.216;2023-07-13T16:19:26;30.00;46.10
1704;DHT22;849;48.780;9.216;2023-07-13T16:22:02;29.70;45.10
1704;DHT22;849;48.780;9.216;2023-07-13T16:24:38;29.70;45.60
1704;DHT22;849;48.780;9.216;2023-07-13T16:27:20;29.80;45.10
1704;DHT22;849;48.780;9.216;2023-07-13T16:30:21;29.50;45.90
1704;DHT22;849;48.780;9.216;2023-07-13T16:32:56;29.60;45.90
1704;DHT22;849;48.780;9.216;2023-07-13T16:35:40;29.70;45.50
1704;DHT22;849;48.780;9.216;2023-07-13T16:38:21;29.60;45.20
1704;DHT22;849;48.780;9.216;2023-07-13T16:40:54;29.70;45.60
1704;DHT22;849;48.780;9.216;2023-07-13T16:43:28;29.40;45.70
1704;DHT22;849;48.780;9.216;2023-07-13T16:46:02;29.10;46.30
1704;DHT22;849;48.780;9.216;2023-07-13T16:48:36;29.00;46.00
1704;DHT22;849;48.780;9.216;2023-07-13T16:51:11;28.80;46.50
1704;DHT22;849;48.780;9.216;2023-07-13T16:53:43;28.60;47.20
1704;DHT22;849;48.780;9.216;2023-07-13T16:56:18;28.50;47.00
1704;DHT22;849;48.780;9.216;2023-07-13T16:58:57;28.30;47.20
1704;DHT22;849;48.780;9.216;2023-07-13T17:01:28;28.60;47.40
1704;DHT22;849;48.780;9.216;2023-07-13T17:04:04;28.60;47.30
1704;DHT22;849;48.780;9.216;2023-07-13T17:06:42;28.70;47.60
1704;DHT22;849;48.780;9.216;2023-07-13T17:09:21;28.90;46.70
1704;DHT22;849;48.780;9.216;2023-07-13T17:11:54;29.00;47.90
1704;DHT22;849;48.780;9.216;2023-07-13T17:14:31;28.80;47.30
1704;DHT22;849;48.780;9.216;2023-07-13T17:17:19;28.90;46.80
1704;DHT22;849;48.780;9.216;2023-07-13T17:20:20;28.50;47.90
1704;DHT22;849;48.780;9.216;2023-07-13T17:23:00;28.20;47.20
1704;DHT22;849;48.780;9.216;2023-07-13T17:25:34;27.90;47.80
1704;DHT22;849;48.780;9.216;2023-07-13T17:28:17;27.80;47.70
1704;DHT22;849;48.780;9.216;2023-07-13T17:30:54;27.50;48.10
1704;DHT22;849;48.780;9.216;2023-07-13T17:33:32;27.70;49.30
1704;DHT22;849;48.780;9.216;2023-07-13T17:36:13;27.90;49.10
1704;DHT22;849;48.780;9.216;2023-07-13T17:38:47;28.00;48.30
1704;DHT22;849;48.780;9.216;2023-07-13T17:41:32;27.80;48.90
1704;DHT22;849;48.780;9.216;2023-07-13T17:44:15;27.80;48.90
1704;DHT22;849;48.780;9.216;2023-07-13T17:46:57;27.70;48.50
1704;DHT22;849;48.780;9.216;2023-07-13T17:49:30;27.40;48.50
1704;DHT22;849;48.780;9.216;2023-07-13T17:52:12;27.20;49.00